createdAt,value
2019-03-17T00:03:00.882Z,37.40
2019-03-17T00:08:06.668Z,37.40
2019-03-17T00:13:10.250Z,37.40
2019-03-17T00:18:13.996Z,37.40
2019-03-17T00:23:17.796Z,37.40
2019-03-17T00:28:21.888Z,37.40
2019-03-17T00:33:25.815Z,37.40
2019-03-17T00:38:29.904Z,37.40
2019-03-17T00:43:33.692Z,37.40
2019-03-17T00:48:41.062Z,37.40
2019-03-17T00:53:45.027Z,37.30
2019-03-17T00:58:48.874Z,37.40
2019-03-17T01:03:52.717Z,37.30
2019-03-17T01:08:56.523Z,37.30
2019-03-17T01:14:00.338Z,37.40
2019-03-17T01:19:04.047Z,37.70
2019-03-17T01:24:10.233Z,37.40
2019-03-17T01:29:13.239Z,37.40
2019-03-17T01:34:17.053Z,37.40
2019-03-17T01:39:20.877Z,37.30
2019-03-17T01:44:24.848Z,37.50
2019-03-17T01:49:28.642Z,37.50
2019-03-17T01:54:32.370Z,37.50
2019-03-17T01:59:37.073Z,37.50
2019-03-17T02:04:40.961Z,37.50
2019-03-17T02:09:44.798Z,37.60
2019-03-17T02:14:48.510Z,37.60
2019-03-17T02:19:52.192Z,37.60
2019-03-17T02:24:56.023Z,37.70
2019-03-17T02:29:59.884Z,37.80
2019-03-17T02:35:03.659Z,37.70
2019-03-17T02:40:07.594Z,37.70
2019-03-17T02:45:13.969Z,37.70
2019-03-17T02:50:17.765Z,37.70
2019-03-17T02:55:21.490Z,37.70
2019-03-17T03:00:25.250Z,37.70
2019-03-17T03:05:29.032Z,37.70
2019-03-17T03:10:32.882Z,37.70
2019-03-17T03:15:36.762Z,37.70
2019-03-17T03:20:40.580Z,37.60
2019-03-17T03:25:44.383Z,37.60
2019-03-17T03:30:48.138Z,37.60
2019-03-17T03:35:51.862Z,37.60
2019-03-17T03:40:55.545Z,37.50
2019-03-17T03:45:59.628Z,37.50
2019-03-17T03:51:03.477Z,37.60
2019-03-17T03:56:07.343Z,37.50
2019-03-17T04:01:11.167Z,38.10
2019-03-17T04:06:25.735Z,37.50
2019-03-17T04:11:20.359Z,37.50
2019-03-17T04:16:24.100Z,37.50
2019-03-17T04:21:27.818Z,37.50
2019-03-17T04:26:31.543Z,37.50
2019-03-17T04:31:35.355Z,37.40
2019-03-17T04:36:40.670Z,37.50
2019-03-17T04:41:44.586Z,37.40
2019-03-17T04:46:48.325Z,37.40
2019-03-17T04:51:52.043Z,37.40
2019-03-17T04:56:55.777Z,37.40
2019-03-17T05:01:59.425Z,37.40
2019-03-17T05:07:03.117Z,37.40
2019-03-17T05:12:06.889Z,37.30
2019-03-17T05:17:10.517Z,37.30
2019-03-17T05:22:14.203Z,37.40
2019-03-17T05:27:17.947Z,37.30
2019-03-17T05:32:21.619Z,37.30
2019-03-17T05:37:25.283Z,37.30
2019-03-17T05:42:29.419Z,37.20
2019-03-17T05:47:33.120Z,37.20
2019-03-17T05:52:37.012Z,37.10
2019-03-17T05:57:40.997Z,37.10
2019-03-17T06:02:45.106Z,37.00
2019-03-17T06:07:48.854Z,36.90
2019-03-17T06:12:52.783Z,36.90
2019-03-17T06:17:56.602Z,36.90
2019-03-17T06:23:00.431Z,36.90
2019-03-17T06:28:04.163Z,36.90
2019-03-17T06:33:08.032Z,36.80
2019-03-17T06:38:11.847Z,36.80
2019-03-17T06:43:15.658Z,36.80
2019-03-17T06:48:19.434Z,36.80
2019-03-17T06:53:23.264Z,36.80
2019-03-17T06:58:27.021Z,36.80
2019-03-17T07:03:30.708Z,36.80
2019-03-17T07:08:34.939Z,36.90
2019-03-17T07:13:44.056Z,36.90
2019-03-17T07:18:47.869Z,36.90
2019-03-17T07:23:51.616Z,37.00
2019-03-17T07:28:55.987Z,37.00
2019-03-17T07:33:59.928Z,37.10
2019-03-17T07:39:11.715Z,37.10
2019-03-17T07:44:10.944Z,37.10
2019-03-17T07:49:15.247Z,37.20
2019-03-17T07:54:19.977Z,37.20
2019-03-17T07:59:23.712Z,37.20
2019-03-17T08:04:27.767Z,37.20
2019-03-17T08:09:31.564Z,37.20
2019-03-17T08:14:35.259Z,37.30
2019-03-17T08:19:39.039Z,37.40
2019-03-17T08:24:42.885Z,37.40
2019-03-17T08:29:46.616Z,37.50
2019-03-17T08:34:50.415Z,37.50
2019-03-17T08:39:54.323Z,37.50
2019-03-17T08:44:58.248Z,37.60
2019-03-17T08:50:02.110Z,37.70
2019-03-17T08:55:06.325Z,37.70
2019-03-17T09:00:11.126Z,37.80
2019-03-17T09:05:14.933Z,37.90
2019-03-17T09:10:19.276Z,37.90
2019-03-17T09:15:23.100Z,37.90
2019-03-17T09:20:26.856Z,37.90
2019-03-17T09:25:30.568Z,37.90
2019-03-17T09:30:34.272Z,38.00
2019-03-17T09:35:38.011Z,38.00
2019-03-17T09:40:41.783Z,37.90
2019-03-17T09:45:45.642Z,37.90
2019-03-17T09:50:49.592Z,37.90
2019-03-17T09:55:53.425Z,38.00
2019-03-17T10:00:57.102Z,37.80
2019-03-17T10:06:00.814Z,37.80
2019-03-17T10:11:04.590Z,37.80
2019-03-17T10:16:08.356Z,37.80
2019-03-17T10:21:12.068Z,37.70
2019-03-17T10:26:15.832Z,37.90
2019-03-17T10:31:19.938Z,37.80
2019-03-17T10:36:23.666Z,37.80
2019-03-17T10:41:27.374Z,37.70
2019-03-17T10:46:31.274Z,37.70
2019-03-17T10:51:35.046Z,37.70
2019-03-17T10:56:38.718Z,37.60
2019-03-17T11:01:42.549Z,37.70
2019-03-17T11:06:46.403Z,38.20
2019-03-17T11:11:50.199Z,37.60
2019-03-17T11:16:54.033Z,37.70
2019-03-17T11:21:57.947Z,37.70
2019-03-17T11:27:01.756Z,37.70
2019-03-17T11:32:06.737Z,37.70
2019-03-17T11:37:10.791Z,37.70
2019-03-17T11:42:14.654Z,37.60
2019-03-17T11:47:18.587Z,37.60
2019-03-17T11:52:22.395Z,37.70
2019-03-17T11:57:26.291Z,37.60
2019-03-17T12:02:30.157Z,37.60
2019-03-17T12:07:34.059Z,37.60
2019-03-17T12:12:38.083Z,37.50
2019-03-17T12:17:42.350Z,37.50
2019-03-17T12:22:46.171Z,37.50
2019-03-17T12:27:50.106Z,37.60
2019-03-17T12:32:53.945Z,37.60
2019-03-17T12:37:57.727Z,37.60
2019-03-17T12:43:01.668Z,37.60
2019-03-17T12:48:05.514Z,37.60
2019-03-17T12:53:09.487Z,37.60
2019-03-17T12:58:15.017Z,37.60
2019-03-17T13:03:19.885Z,37.70
2019-03-17T13:08:23.679Z,37.70
2019-03-17T13:13:27.466Z,37.70
2019-03-17T13:18:31.255Z,37.70
2019-03-17T13:23:34.998Z,37.70
2019-03-17T13:28:38.775Z,37.80
2019-03-17T13:33:42.657Z,38.40
2019-03-17T13:38:46.484Z,37.80
2019-03-17T13:43:50.245Z,37.80
2019-03-17T13:48:54.142Z,37.80
2019-03-17T13:53:57.959Z,37.80
2019-03-17T13:59:01.756Z,37.80
2019-03-17T14:04:05.613Z,37.80
2019-03-17T14:09:09.493Z,37.80
2019-03-17T14:14:13.276Z,37.80
2019-03-17T14:19:17.086Z,37.80
2019-03-17T14:24:20.874Z,37.80
2019-03-17T14:29:24.731Z,37.80
2019-03-17T14:34:28.558Z,37.80
2019-03-17T14:39:32.367Z,37.80
2019-03-17T14:44:36.154Z,37.80
2019-03-17T14:49:39.988Z,37.80
2019-03-17T14:54:44.185Z,37.70
2019-03-17T14:59:48.237Z,37.70
2019-03-17T15:04:51.977Z,37.70
2019-03-17T15:09:55.830Z,37.70
2019-03-17T15:14:59.953Z,37.70
2019-03-17T15:20:03.712Z,37.70
2019-03-17T15:25:08.945Z,37.70
2019-03-17T15:30:23.169Z,37.70
2019-03-17T15:35:27.306Z,37.70
2019-03-17T15:40:31.534Z,37.70
2019-03-17T15:45:35.769Z,37.70
2019-03-17T15:50:39.646Z,37.60
2019-03-17T15:55:43.484Z,37.60
2019-03-17T16:00:47.336Z,37.50
2019-03-17T16:06:10.480Z,37.50
2019-03-17T16:11:14.303Z,37.50
2019-03-17T16:16:18.035Z,37.50
2019-03-17T16:21:21.916Z,37.50
2019-03-17T16:26:25.742Z,37.50
2019-03-17T16:31:29.568Z,37.50
2019-03-17T16:36:33.295Z,37.50
2019-03-17T16:41:43.347Z,37.50
2019-03-17T16:46:42.484Z,37.00
2019-03-17T16:51:46.255Z,37.50
2019-03-17T16:56:50.349Z,37.50
2019-03-17T17:01:54.158Z,37.50
2019-03-17T17:06:57.865Z,37.50
2019-03-17T17:12:01.633Z,37.40
2019-03-17T17:17:05.475Z,37.40
2019-03-17T17:22:09.338Z,37.40
2019-03-17T17:27:13.169Z,37.40
2019-03-17T17:32:17.025Z,37.30
2019-03-17T17:37:20.962Z,37.40
2019-03-17T17:42:24.760Z,37.30
2019-03-17T17:47:28.874Z,37.30
2019-03-17T17:52:32.750Z,37.30
2019-03-17T17:57:36.653Z,37.30
2019-03-17T18:02:40.492Z,37.20
2019-03-17T18:07:44.381Z,37.20
2019-03-17T18:12:48.370Z,37.20
2019-03-17T18:17:53.389Z,37.20
2019-03-17T18:22:57.226Z,37.20
2019-03-17T18:28:01.596Z,37.20
2019-03-17T18:33:06.080Z,37.20
2019-03-17T18:38:10.847Z,37.10
2019-03-17T18:43:14.771Z,37.10
2019-03-17T18:48:19.154Z,37.10
2019-03-17T18:53:23.196Z,37.40
2019-03-17T18:58:27.442Z,37.40
2019-03-17T19:03:32.126Z,37.20
2019-03-17T19:08:47.234Z,36.80
2019-03-17T19:13:51.464Z,36.20
2019-03-17T19:18:55.365Z,35.60
2019-03-17T19:23:59.457Z,31.60
2019-03-17T19:29:03.221Z,33.20
2019-03-17T19:34:07.209Z,33.30
2019-03-17T19:39:12.604Z,33.60
2019-03-17T19:44:16.636Z,33.90
2019-03-17T19:49:20.576Z,34.20
2019-03-17T19:54:24.673Z,34.40
2019-03-17T19:59:28.951Z,35.90
2019-03-17T20:04:35.567Z,36.40
2019-03-17T20:09:38.764Z,36.50
2019-03-17T20:14:42.720Z,36.40
2019-03-17T20:19:46.505Z,36.50
2019-03-17T20:24:50.663Z,36.40
2019-03-17T20:29:54.984Z,36.70
2019-03-17T20:34:58.830Z,36.70
2019-03-17T20:40:03.163Z,36.80
2019-03-17T20:45:07.444Z,37.00
2019-03-17T20:50:11.623Z,37.00
2019-03-17T20:55:15.938Z,37.10
2019-03-17T21:00:19.984Z,37.20
2019-03-17T21:05:23.856Z,37.20
2019-03-17T21:10:28.046Z,37.30
2019-03-17T21:15:31.812Z,37.30
2019-03-17T21:20:35.570Z,37.40
2019-03-17T21:25:39.475Z,37.40
2019-03-17T21:30:43.296Z,37.50
2019-03-17T21:35:51.772Z,37.50
2019-03-17T21:41:06.590Z,37.50
2019-03-17T21:46:01.817Z,37.50
2019-03-17T21:51:05.842Z,37.80
2019-03-17T21:56:09.633Z,38.20
2019-03-17T22:01:13.443Z,38.80
2019-03-17T22:06:17.275Z,38.40
2019-03-17T22:11:21.076Z,38.80
2019-03-17T22:16:24.881Z,38.50
2019-03-17T22:21:28.693Z,38.50
2019-03-17T22:26:32.537Z,38.60
2019-03-17T22:31:36.400Z,38.60
2019-03-17T22:36:40.158Z,38.60
2019-03-17T22:41:44.003Z,42.70
2019-03-17T22:46:47.809Z,40.60
2019-03-17T22:51:51.802Z,40.30
2019-03-17T22:56:55.565Z,40.10
2019-03-17T23:01:59.292Z,39.70
2019-03-17T23:07:03.035Z,39.40
2019-03-17T23:12:06.816Z,39.30
2019-03-17T23:17:10.646Z,39.60
2019-03-17T23:22:14.482Z,38.90
2019-03-17T23:27:18.262Z,38.80
2019-03-17T23:32:22.055Z,38.80
2019-03-17T23:37:26.889Z,38.70
2019-03-17T23:42:30.641Z,38.60
2019-03-17T23:47:34.288Z,38.50
2019-03-17T23:52:38.161Z,38.40
2019-03-17T23:57:42.407Z,38.30
